Fulton, MS (38843)

7:30 PM CDT on September 20, 2014 (GMT -0500)
Sugar Flats | Change Station
CLOSE
Current Station
Personal Weather Station
Location: Marietta, MS
Elevation: 361 ft
Nearby Weather Stations

Elev 361 ft 34.52 °N, 88.42 °W | Updated 19 seconds ago

Clear
Clear
74.3 °F
Feels Like 72 °F
N
0.0
Wind Variable Wind from West
Gusts 0.0 mph

Today
High -- | Low -- °F
--% Chance of Precip.
Yesterday
High -- | Low -- °F
Precip. -- in
6:40 AM 6:53 PM
Waning Crescent, 9% visible
Pressure 29.98 in
Visibility 10.0 miles
Clouds Clear
Heat Index 72 °F
Dew Point Not available.
Humidity Not available.
Rainfall 0.00 in
Snow Depth Not available.
UV 0 out of 12
Pollen 8.10 out of 12
Air Quality Not available.
Flu Activity Not available.
METAR KTUP 202353Z 11003KT 10SM CLR 28/18 A2999 RMK AO2 SLP150 T02780183 10311 20278 55005

More Conditions Fewer Conditions

Pressure 29.98 in
Visibility 10.0 miles
Clouds Clear
Heat Index 72 °F
Dew Point Not available.
Humidity Not available.
Rainfall 0.00 in
Snow Depth Not available.
UV 0 out of 12
Pollen 8.10 out of 12
Air Quality Not available.
Flu Activity Not available.
METAR KTUP 202353Z 11003KT 10SM CLR 28/18 A2999 RMK AO2 SLP150 T02780183 10311 20278 55005

More Conditions Fewer Conditions

10-Day Weather Forecast

Almanac

Astronomy

Sep. 20, 2014 Rise Set
Actual Time 6:40 AM CDT 6:53 PM CDT
Civil Twilight 6:15 AM CDT 7:18 PM CDT
Nautical Twilight 5:45 AM CDT 7:47 PM CDT
Astronomical Twilight 5:16 AM CDT 8:17 PM CDT
Moon 3:26 AM CDT (9/20) 4:50 PM CDT (9/20)
Length of Visible Light 13h 03m
Length of Day
12h 12m
Tomorrow will be 2m 7s shorter.
Waning Crescent, 9% of the Moon is Illuminated
Today
Waning Crescent
Sep 24
New
Oct 1
First Quarter
Oct 8
Full
Oct 15
Last Quarter

Today's Extremes

State Highs State Lows

Community

WunderPhotos

Upload Photos

1,755,000 photos uploaded!

WunderBlogs® & News

Nearby

Snow Depth

Station Depth Elevation
No new snow has been reported.

Earthquake Activity

City Distance Mag. Time & Date
No recent earthquake activity has been reported nearby.
Minimum magnitude displayed is 2.5.

Coastal Water Temperatures

Place Temperature
No Stations Reporting

Nearby Weather Stations